Skykomish, WA (98288)

8:22 AM PST on February 12, 2016 (GMT -0800)
Skykomish Valley at MIR | | Change Station
CLOSE
Current Station
Personal Weather Station
Location: Index, WA
Elevation: 686 ft
Nearby Weather Stations

Elev 686 ft 47.80 °N, 121.55 °W | Updated 5 minutes ago

Overcast
Overcast
45.3 °F
Feels Like 45 °F
N
0.0
Wind Variable Wind from East
Gusts 3.0 mph

Today
High -- | Low -- °F
--% Chance of Precip.
Yesterday
High -- | Low -- °F
Precip. -- in
Pressure 30.08 in
Visibility 10.0 miles
Clouds Few 6000 ft
Windchill 45 °F
Dew Point 41 °F
Humidity 84%
Rainfall 1.08 in
Snow Depth Not available.
7:16 AM 5:23 PM
Waxing Crescent, 21% visible
METAR KRNT 121553Z 11005KT 10SM FEW060 11/10 A3006 RMK AO2 RAE02 SLP185 P0000 T01110100
Pressure 30.08 in
Visibility 10.0 miles
Clouds Few 6000 ft
Windchill 45 °F
Dew Point 41 °F
Humidity 84%
Rainfall 1.08 in
Snow Depth Not available.
7:16 AM 5:23 PM
Waxing Crescent, 21% visible
METAR KRNT 121553Z 11005KT 10SM FEW060 11/10 A3006 RMK AO2 RAE02 SLP185 P0000 T01110100

10-Day Weather Forecast

Almanac

Astronomy

Feb. 12, 2016 Rise Set
Actual Time
Civil Twilight
Nautical Twilight
Astronomical Twilight
Moon
Length of Visible Light
Length of Day
Tomorrow will be .
, % of the Moon is Illuminated

Today's Extremes

State Highs State Lows

Community

WunderPhotos

Upload Photos

1,892,350 photos uploaded!

WunderBlog® & News

Nearby

Air Quality

  Air Quality AQ Index Pollutant
Not available.

Snow Depth

Station Depth Elevation

Earthquake Activity

City Distance Mag. Time & Date
Minimum magnitude displayed is 2.5.

Coastal Water Temperatures

Place Temperature

Stations

Nearby Weather Stations

Station Location Temp. Windchill Dew Point Humidity Wind Precip. Elev Updated Type
                   

Watches & Warnings

There are currently no watches in effect.